Time;durP1;ratioP1;P1;durP2;ratioP2;P2;SDS_P1;SDS_P2;PMS_P1;PMS_P2;Temp;Humidity;BMP_temperature;BMP_pressure;BME280_temperature;BME280_humidity;BME280_pressure;Samples;Min_cycle;Max_cycle;Signal;HPM_P1;HPM_P2
2023/04/21 00:00:46;;;;;;;35.63;26.50;;;;;;;6.35;100.00;101465.22;4994947;28;20481;-75
2023/04/21 00:03:11;;;;;;;34.78;24.98;;;;;;;6.31;100.00;101461.72;5004089;28;20034;-75
2023/04/21 00:05:41;;;;;;;37.13;26.17;;;;;;;6.26;100.00;101453.09;4996020;28;20491;-75
2023/04/21 00:08:07;;;;;;;37.78;26.15;;;;;;;6.31;100.00;101459.16;4997611;28;20412;-75
2023/04/21 00:10:32;;;;;;;35.47;26.77;;;;;;;6.30;100.00;101462.59;4999949;28;20029;-75
2023/04/21 00:12:58;;;;;;;40.55;27.95;;;;;;;6.21;100.00;101441.84;4996371;28;20080;-75
2023/04/21 00:15:23;;;;;;;38.00;27.15;;;;;;;6.23;100.00;101448.75;5006483;28;20018;-75
2023/04/21 00:17:48;;;;;;;39.63;28.10;;;;;;;6.25;100.00;101447.06;4996318;28;20034;-75
2023/04/21 00:20:14;;;;;;;39.30;27.85;;;;;;;6.23;100.00;101445.31;4995228;28;20035;-75
2023/04/21 00:22:39;;;;;;;43.00;28.48;;;;;;;6.21;100.00;101432.38;5002969;28;20026;-75
2023/04/21 00:25:05;;;;;;;37.55;27.55;;;;;;;6.23;100.00;101438.41;5001279;28;20026;-75
2023/04/21 00:27:31;;;;;;;42.72;28.98;;;;;;;6.19;100.00;101426.31;5007552;28;20030;-75
2023/04/21 00:29:56;;;;;;;40.63;28.48;;;;;;;6.17;100.00;101435.78;5047311;28;20113;-75
2023/04/21 00:32:21;;;;;;;44.60;30.17;;;;;;;6.15;100.00;101429.75;4993616;28;20094;-75
2023/04/21 00:34:46;;;;;;;41.50;28.75;;;;;;;6.15;100.00;101422.00;5001081;28;20041;-75
2023/04/21 00:37:12;;;;;;;39.90;28.40;;;;;;;6.19;100.00;101431.50;4995452;28;20121;-75
2023/04/21 00:39:37;;;;;;;38.13;27.38;;;;;;;6.20;100.00;101437.53;4999138;28;20089;-75
2023/04/21 00:42:02;;;;;;;44.15;28.58;;;;;;;6.19;100.00;101438.41;4997721;28;20465;-75
2023/04/21 00:44:28;;;;;;;40.90;28.25;;;;;;;6.19;100.00;101423.72;5011055;28;20048;-75
2023/04/21 00:46:53;;;;;;;40.78;28.52;;;;;;;6.17;100.00;101419.41;5004284;28;20358;-76
2023/04/21 00:49:18;;;;;;;42.63;29.13;;;;;;;6.17;100.00;101424.56;5007150;28;20038;-76
2023/04/21 00:51:44;;;;;;;41.90;28.70;;;;;;;6.14;100.00;101425.41;5000614;28;20469;-76
2023/04/21 00:54:10;;;;;;;40.78;27.80;;;;;;;6.15;100.00;101429.75;4998490;28;20389;-76
2023/04/21 00:56:36;;;;;;;41.05;28.73;;;;;;;6.20;100.00;101424.59;4999402;28;20030;-76
2023/04/21 00:59:02;;;;;;;44.80;30.20;;;;;;;6.23;100.00;101425.47;4991158;28;20030;-76
2023/04/21 01:01:28;;;;;;;44.53;29.13;;;;;;;6.24;100.00;101429.78;4990944;28;20030;-77
2023/04/21 01:03:57;;;;;;;46.70;30.52;;;;;;;6.16;100.00;101418.53;4995251;28;20526;-77
2023/04/21 01:06:23;;;;;;;42.70;29.55;;;;;;;6.24;100.00;101429.78;5003930;28;20049;-78
2023/04/21 01:08:51;;;;;;;42.83;29.27;;;;;;;6.19;100.00;101409.94;4993840;28;20119;-77
2023/04/21 01:11:16;;;;;;;45.85;31.33;;;;;;;6.22;100.00;101410.78;5055967;28;20027;-78
2023/04/21 01:13:42;;;;;;;43.63;29.13;;;;;;;6.14;100.00;101402.13;5093663;28;20038;-77
2023/04/21 01:16:07;;;;;;;43.67;29.70;;;;;;;6.20;100.00;101404.75;5022366;28;20023;-77
2023/04/21 01:18:33;;;;;;;43.65;29.73;;;;;;;6.22;100.00;101404.75;5004270;28;20106;-77
2023/04/21 01:21:00;;;;;;;45.65;30.02;;;;;;;6.20;100.00;101390.94;4995887;28;20034;-77
2023/04/21 01:23:25;;;;;;;47.80;30.83;;;;;;;6.25;100.00;101395.28;5010970;28;20046;-77
2023/04/21 01:25:51;;;;;;;44.95;29.85;;;;;;;6.23;100.00;101386.63;4998753;28;20504;-77
2023/04/21 01:28:25;;;;;;;45.33;29.90;;;;;;;6.23;100.00;101380.59;4993851;28;20473;-77
2023/04/21 01:30:51;;;;;;;47.40;30.65;;;;;;;6.24;100.00;101390.06;5006617;28;20042;-78
2023/04/21 01:33:18;;;;;;;44.20;29.30;;;;;;;6.16;100.00;101376.25;4990009;28;20026;-78
2023/04/21 01:35:44;;;;;;;46.92;29.90;;;;;;;6.17;100.00;101383.16;5030152;28;20032;-77
2023/04/21 01:38:09;;;;;;;47.88;30.95;;;;;;;6.12;100.00;101383.16;5014615;28;20029;-77
2023/04/21 01:40:35;;;;;;;45.92;30.00;;;;;;;6.15;100.00;101379.69;5008779;28;20097;-77
2023/04/21 01:43:02;;;;;;;45.25;29.33;;;;;;;6.13;100.00;101384.00;5010043;28;20022;-77
2023/04/21 01:45:28;;;;;;;44.50;28.25;;;;;;;6.10;100.00;101380.53;5010321;28;20029;-77
2023/04/21 01:47:53;;;;;;;42.75;29.30;;;;;;;6.09;100.00;101372.78;5003086;28;20036;-76
2023/04/21 01:50:19;;;;;;;44.47;28.20;;;;;;;6.08;100.00;101368.44;5005038;28;20049;-76
2023/04/21 01:52:44;;;;;;;45.60;30.15;;;;;;;6.06;100.00;101359.81;4988269;28;20037;-76
2023/04/21 01:55:09;;;;;;;45.30;29.60;;;;;;;5.97;100.00;101355.47;4990208;28;20066;-76
2023/04/21 01:57:35;;;;;;;43.92;28.40;;;;;;;5.98;100.00;101351.16;4995673;28;20033;-76
2023/04/21 02:00:01;;;;;;;45.40;28.48;;;;;;;6.00;100.00;101347.72;5001914;28;20062;-76
2023/04/21 02:02:28;;;;;;;43.63;27.98;;;;;;;5.97;100.00;101329.59;4994998;28;20018;-76
2023/04/21 02:04:53;;;;;;;46.47;28.92;;;;;;;5.95;100.00;101323.56;5000457;28;20019;-76
2023/04/21 02:07:18;;;;;;;42.42;28.02;;;;;;;5.97;100.00;101328.72;4994050;28;20018;-76
2023/04/21 02:09:43;;;;;;;44.08;27.92;;;;;;;5.93;100.00;101342.53;5067254;28;20034;-76
2023/04/21 02:12:09;;;;;;;43.80;27.17;;;;;;;5.93;100.00;101347.69;4992641;28;20030;-75
2023/04/21 02:14:36;;;;;;;45.10;26.48;;;;;;;5.97;100.00;101346.84;5006816;28;20026;-75
2023/04/21 02:17:02;;;;;;;45.42;27.13;;;;;;;5.94;100.00;101339.06;5050020;28;20055;-75
2023/04/21 02:19:27;;;;;;;45.10;27.25;;;;;;;6.02;100.00;101337.38;5085552;28;20471;-75
2023/04/21 02:21:53;;;;;;;45.47;27.10;;;;;;;6.04;100.00;101338.25;4993886;28;20049;-75
2023/04/21 02:24:18;;;;;;;44.10;26.70;;;;;;;6.01;100.00;101330.47;5025930;28;20025;-75
2023/04/21 02:26:43;;;;;;;42.88;26.33;;;;;;;5.94;100.00;101327.00;5004160;28;20029;-75
2023/04/21 02:29:08;;;;;;;41.08;26.98;;;;;;;5.84;100.00;101317.44;5029476;28;20022;-75
2023/04/21 02:31:34;;;;;;;42.33;26.30;;;;;;;5.90;100.00;101329.53;4995747;28;20044;-75
2023/04/21 02:33:59;;;;;;;42.50;25.85;;;;;;;5.93;100.00;101335.63;4993564;28;20113;-75
2023/04/21 02:36:25;;;;;;;43.72;27.08;;;;;;;5.92;100.00;101325.22;4996498;28;20019;-75
2023/04/21 02:38:50;;;;;;;43.00;25.73;;;;;;;5.93;100.00;101324.41;4994970;28;20034;-75
2023/04/21 02:41:16;;;;;;;43.38;27.52;;;;;;;5.97;100.00;101327.00;4992567;28;20084;-75
2023/04/21 02:43:41;;;;;;;47.85;28.58;;;;;;;5.97;100.00;101328.72;4990820;28;20430;-74
2023/04/21 02:46:07;;;;;;;49.47;27.15;;;;;;;6.00;100.00;101332.19;5013864;28;20050;-75
2023/04/21 02:48:33;;;;;;;44.97;27.33;;;;;;;6.02;100.00;101332.22;4999566;28;20045;-74
2023/04/21 02:50:59;;;;;;;49.05;28.17;;;;;;;6.02;100.00;101330.47;5004197;28;20026;-75
2023/04/21 02:53:24;;;;;;;45.25;27.83;;;;;;;6.00;100.00;101324.44;5066118;28;20441;-75
2023/04/21 02:55:49;;;;;;;46.67;27.95;;;;;;;5.97;100.00;101328.72;5055613;28;20022;-75
2023/04/21 02:58:18;;;;;;;50.25;30.05;;;;;;;5.95;100.00;101327.84;4991364;28;20026;-74
2023/04/21 03:00:43;;;;;;;50.00;28.88;;;;;;;5.95;100.00;101325.25;4995063;28;20033;-75
2023/04/21 03:03:09;;;;;;;49.53;30.30;;;;;;;5.87;100.00;101310.53;4992806;28;20034;-75
2023/04/21 03:05:34;;;;;;;44.78;28.67;;;;;;;5.89;100.00;101317.47;4991688;28;20045;-75
2023/04/21 03:08:00;;;;;;;46.70;28.83;;;;;;;5.83;100.00;101315.72;4993054;28;20407;-75
2023/04/21 03:10:25;;;;;;;46.85;27.98;;;;;;;5.68;100.00;101316.50;5004216;28;20030;-75
2023/04/21 03:12:50;;;;;;;44.97;27.40;;;;;;;5.58;100.00;101313.00;4994677;28;20028;-75
2023/04/21 03:15:16;;;;;;;50.08;29.10;;;;;;;5.55;100.00;101312.13;5001943;28;20029;-74
2023/04/21 03:17:42;;;;;;;50.80;29.80;;;;;;;5.51;100.00;101308.69;5008961;28;20038;-75
2023/04/21 03:20:08;;;;;;;48.35;30.38;;;;;;;5.50;100.00;101311.28;4999632;28;20026;-75
2023/04/21 03:22:37;;;;;;;51.42;30.73;;;;;;;5.50;100.00;101319.03;4994579;28;20026;-74
2023/04/21 03:25:03;;;;;;;53.03;29.63;;;;;;;5.46;100.00;101323.31;4997666;28;20083;-74
2023/04/21 03:27:29;;;;;;;50.42;29.63;;;;;;;5.40;100.00;101311.22;4996035;28;20080;-74
2023/04/21 03:29:54;;;;;;;51.08;30.05;;;;;;;5.39;100.00;101318.94;5005060;28;20061;-74
2023/04/21 03:32:19;;;;;;;55.08;30.98;;;;;;;5.36;100.00;101301.72;5000525;28;20033;-74
2023/04/21 03:34:45;;;;;;;57.45;33.38;;;;;;;5.37;100.00;101303.44;4995788;28;20035;-75
2023/04/21 03:37:10;;;;;;;53.47;31.30;;;;;;;5.43;100.00;101312.06;5005080;28;20067;-74
2023/04/21 03:39:35;;;;;;;59.08;32.35;;;;;;;5.39;100.00;101309.50;5067645;28;20028;-74
2023/04/21 03:42:01;;;;;;;64.75;33.53;;;;;;;5.43;100.00;101301.72;5006920;28;20415;-74
2023/04/21 03:44:27;;;;;;;56.72;32.80;;;;;;;5.39;100.00;101306.91;5054244;28;20028;-74
2023/04/21 03:46:53;;;;;;;57.92;34.05;;;;;;;5.49;100.00;101314.69;5024041;28;20024;-74
2023/04/21 03:49:19;;;;;;;59.22;34.20;;;;;;;5.52;100.00;101302.63;5045630;28;20030;-74
2023/04/21 03:51:44;;;;;;;61.80;33.90;;;;;;;5.62;100.00;101314.78;5020536;28;20029;-74
2023/04/21 03:54:09;;;;;;;59.45;33.83;;;;;;;5.64;100.00;101312.19;5007246;28;20041;-74
2023/04/21 03:56:35;;;;;;;63.17;34.83;;;;;;;5.77;100.00;101316.56;5065639;28;20036;-74
2023/04/21 03:59:00;;;;;;;63.72;35.38;;;;;;;5.83;100.00;101315.72;4996339;28;20492;-74
2023/04/21 04:01:25;;;;;;;63.28;36.03;;;;;;;5.85;100.00;101319.16;4990336;28;20030;-74
2023/04/21 04:03:51;;;;;;;61.28;34.97;;;;;;;5.89;100.00;101314.88;4996414;28;20087;-75
2023/04/21 04:06:16;;;;;;;70.00;35.80;;;;;;;5.91;100.00;101307.97;4991701;28;20022;-74
2023/04/21 04:08:41;;;;;;;65.90;35.67;;;;;;;5.94;100.00;101313.19;5047742;28;20464;-75
2023/04/21 04:11:07;;;;;;;64.65;36.15;;;;;;;5.97;100.00;101308.03;5016746;28;20058;-75
2023/04/21 04:13:32;;;;;;;65.97;36.13;;;;;;;5.99;100.00;101306.31;4998008;28;20057;-75
2023/04/21 04:15:57;;;;;;;65.78;35.22;;;;;;;6.03;100.00;101310.63;4997230;28;20027;-75
2023/04/21 04:18:23;;;;;;;64.05;34.72;;;;;;;6.04;100.00;101309.78;5005627;28;20033;-74
2023/04/21 04:20:48;;;;;;;66.90;36.70;;;;;;;6.06;100.00;101303.75;5006803;28;20054;-74
2023/04/21 04:23:14;;;;;;;62.72;34.90;;;;;;;6.10;100.00;101305.47;4992290;28;20030;-75
2023/04/21 04:25:39;;;;;;;63.58;36.25;;;;;;;6.12;100.00;101302.91;4993005;28;20030;-74
2023/04/21 04:28:08;;;;;;;63.58;35.95;;;;;;;6.06;100.00;101293.38;4999472;28;20030;-74
2023/04/21 04:30:34;;;;;;;62.75;34.95;;;;;;;6.15;100.00;101299.44;5007358;28;20075;-75
2023/04/21 04:32:59;;;;;;;67.22;35.95;;;;;;;6.14;100.00;101297.72;5009503;28;20036;-75
2023/04/21 04:35:24;;;;;;;67.53;37.15;;;;;;;6.15;100.00;101296.84;4997668;28;20121;-74
2023/04/21 04:37:50;;;;;;;67.28;35.45;;;;;;;6.09;100.00;101289.94;4989228;28;20030;-75
2023/04/21 04:40:15;;;;;;;60.03;35.58;;;;;;;6.12;100.00;101304.63;5005577;28;20535;-74
2023/04/21 04:42:42;;;;;;;64.05;35.72;;;;;;;6.09;100.00;101303.75;4988345;28;20056;-74
2023/04/21 04:45:08;;;;;;;64.28;35.55;;;;;;;6.10;100.00;101304.59;4993472;28;20059;-74
2023/04/21 04:47:37;;;;;;;66.97;37.03;;;;;;;6.14;100.00;101308.94;5000257;28;20022;-74
2023/04/21 04:50:05;;;;;;;67.90;37.20;;;;;;;6.14;100.00;101308.06;5005469;28;20478;-74
2023/04/21 04:52:31;;;;;;;67.88;37.45;;;;;;;6.17;100.00;101310.66;5055746;28;20042;-74
2023/04/21 04:54:56;;;;;;;65.82;37.22;;;;;;;6.19;100.00;101309.81;4998798;28;20046;-74
2023/04/21 04:57:22;;;;;;;69.18;38.13;;;;;;;6.21;100.00;101312.38;4998917;28;20030;-74
2023/04/21 04:59:47;;;;;;;65.68;37.53;;;;;;;6.23;100.00;101310.69;5032775;28;20026;-74
2023/04/21 05:02:12;;;;;;;67.40;37.30;;;;;;;6.25;100.00;101308.97;4993517;28;20054;-74
2023/04/21 05:04:38;;;;;;;69.13;39.22;;;;;;;6.25;100.00;101301.19;4990390;28;20034;-74
2023/04/21 05:07:06;;;;;;;69.55;37.50;;;;;;;6.34;100.00;101316.72;4996887;28;20023;-74
2023/04/21 05:09:34;;;;;;;70.82;38.92;;;;;;;6.36;100.00;101307.25;5006144;28;20030;-74
2023/04/21 05:12:00;;;;;;;66.50;38.28;;;;;;;6.42;100.00;101312.44;4994259;28;20045;-74
2023/04/21 05:14:26;;;;;;;73.68;40.17;;;;;;;6.39;100.00;101306.41;4992868;28;20027;-74
2023/04/21 05:16:51;;;;;;;77.45;40.28;;;;;;;6.51;100.00;101315.03;4994314;28;20117;-74
2023/04/21 05:19:17;;;;;;;74.53;41.28;;;;;;;6.52;100.00;101316.75;5004644;28;20030;-74
2023/04/21 05:21:42;;;;;;;72.45;40.95;;;;;;;6.56;100.00;101318.47;4996404;28;20034;-74
2023/04/21 05:24:07;;;;;;;79.70;42.95;;;;;;;6.61;100.00;101328.00;5027991;28;20473;-74
2023/04/21 05:26:33;;;;;;;77.30;41.13;;;;;;;6.65;100.00;101325.41;4999032;28;20474;-74
2023/04/21 05:28:58;;;;;;;78.78;43.53;;;;;;;6.75;100.00;101327.13;5000669;28;20022;-74
2023/04/21 05:31:24;;;;;;;76.57;41.58;;;;;;;6.82;100.00;101328.00;4995413;28;20027;-74
2023/04/21 05:33:49;;;;;;;81.32;40.97;;;;;;;6.83;100.00;101334.03;4990818;28;20037;-74
2023/04/21 05:36:15;;;;;;;72.70;39.72;;;;;;;6.78;100.00;101321.94;5001540;28;20070;-74
2023/04/21 05:38:40;;;;;;;78.10;41.72;;;;;;;6.80;100.00;101332.31;5003598;28;20022;-74
2023/04/21 05:41:06;;;;;;;76.88;41.53;;;;;;;6.81;100.00;101331.47;4991675;28;20026;-74
2023/04/21 05:43:34;;;;;;;72.07;40.10;;;;;;;6.81;100.00;101336.63;4988931;28;20034;-74
2023/04/21 05:46:08;;;;;;;69.00;40.60;;;;;;;6.78;100.00;101332.31;4989949;28;20486;-74
2023/04/21 05:48:33;;;;;;;72.88;40.53;;;;;;;6.78;100.00;101341.81;4990784;28;20068;-74
2023/04/21 05:51:09;;;;;;;76.53;42.25;;;;;;;6.77;100.00;101335.78;4988225;28;20705;-74
2023/04/21 05:53:35;;;;;;;76.40;41.40;;;;;;;6.82;100.00;101338.34;4987911;28;20057;-74
2023/04/21 05:56:01;;;;;;;73.28;40.92;;;;;;;6.89;100.00;101350.44;4988431;28;20030;-74
2023/04/21 05:58:26;;;;;;;75.80;41.80;;;;;;;6.89;100.00;101340.09;4991652;28;20030;-74
2023/04/21 06:00:51;;;;;;;72.70;40.67;;;;;;;6.96;100.00;101339.22;4988655;28;20034;-74
2023/04/21 06:03:16;;;;;;;75.65;40.78;;;;;;;6.98;100.00;101340.09;4988409;28;20117;-74
2023/04/21 06:06:03;;;;;;;78.65;42.22;;;;;;;7.04;100.00;101336.63;5026062;28;20029;-74
2023/04/21 06:08:28;;;;;;;72.15;40.25;;;;;;;7.02;100.00;101308.09;4999879;28;20034;-74
2023/04/21 06:10:53;;;;;;;76.80;41.80;;;;;;;7.12;100.00;101329.69;4989997;28;20061;-74
2023/04/21 06:13:19;;;;;;;67.35;39.40;;;;;;;7.02;100.00;101331.44;5000246;28;20022;-74
2023/04/21 06:15:44;;;;;;;70.43;39.85;;;;;;;6.93;100.00;101321.09;4997315;28;20363;-74
2023/04/21 06:18:09;;;;;;;69.72;39.53;;;;;;;6.92;100.00;101334.91;5016900;28;20033;-74
2023/04/21 06:20:35;;;;;;;75.03;42.20;;;;;;;6.98;100.00;101331.44;5006235;28;20465;-74
2023/04/21 06:23:00;;;;;;;75.68;41.60;;;;;;;7.08;100.00;101327.13;4992718;28;20064;-74
2023/04/21 06:25:25;;;;;;;75.93;41.47;;;;;;;7.10;100.00;101326.25;5009144;28;20075;-74
2023/04/21 06:27:51;;;;;;;72.07;40.42;;;;;;;7.18;100.00;101331.41;5008976;28;20034;-74
2023/04/21 06:30:16;;;;;;;72.20;40.83;;;;;;;7.24;100.00;101328.81;4987567;28;20035;-75
2023/04/21 06:32:42;;;;;;;71.03;40.65;;;;;;;7.28;100.00;101327.94;5003336;28;20104;-74
2023/04/21 06:35:08;;;;;;;73.25;40.58;;;;;;;7.38;100.00;101333.97;4994670;28;20077;-74
2023/04/21 06:37:33;;;;;;;71.80;41.30;;;;;;;7.43;100.00;101337.44;5003533;28;20533;-74
2023/04/21 06:39:58;;;;;;;70.18;41.38;;;;;;;7.54;100.00;101335.66;4994045;28;20034;-75
2023/04/21 06:42:23;;;;;;;68.57;39.28;;;;;;;7.66;100.00;101337.34;4992258;28;20109;-74
2023/04/21 06:44:49;;;;;;;73.43;41.20;;;;;;;7.70;100.00;101334.72;4999383;28;20053;-74
2023/04/21 06:47:15;;;;;;;70.80;39.97;;;;;;;7.76;100.00;101336.44;4989051;28;20034;-74
2023/04/21 06:49:41;;;;;;;69.07;38.78;;;;;;;7.87;100.00;101334.66;4998529;28;21724;-75
2023/04/21 06:52:10;;;;;;;63.60;39.10;;;;;;;7.86;100.00;101337.28;4996605;28;20113;-75
2023/04/21 06:54:35;;;;;;;66.15;39.50;;;;;;;7.83;100.00;101335.56;5001074;28;20054;-75
2023/04/21 06:57:01;;;;;;;64.80;37.05;;;;;;;7.85;100.00;101320.84;5028591;28;20049;-74
2023/04/21 06:59:26;;;;;;;69.47;39.00;;;;;;;8.01;100.00;101325.94;5049179;28;20016;-74
2023/04/21 07:01:51;;;;;;;66.97;39.10;;;;;;;8.01;100.00;101326.81;5021651;28;20039;-75
2023/04/21 07:04:17;;;;;;;66.82;39.15;;;;;;;8.10;100.00;101334.53;4999905;28;20022;-75
2023/04/21 07:06:44;;;;;;;58.60;36.33;;;;;;;8.04;100.00;101331.97;4991333;28;20026;-74
2023/04/21 07:09:09;;;;;;;63.00;38.10;;;;;;;8.04;100.00;101329.38;4995129;28;20037;-74
2023/04/21 07:11:34;;;;;;;66.63;40.35;;;;;;;8.24;100.00;101331.91;5024469;28;20401;-74
2023/04/21 07:14:01;;;;;;;64.15;40.15;;;;;;;8.36;100.00;101324.00;4991699;28;20046;-75
2023/04/21 07:16:27;;;;;;;63.42;38.90;;;;;;;8.47;100.00;101330.88;5011432;28;20025;-75
2023/04/21 07:18:52;;;;;;;55.53;35.95;;;;;;;8.43;100.00;101337.84;5011658;28;20030;-75
2023/04/21 07:21:17;;;;;;;58.20;35.85;;;;;;;8.40;100.00;101330.97;5006552;28;20038;-74
2023/04/21 07:23:43;;;;;;;58.97;37.55;;;;;;;8.44;100.00;101331.78;4988554;28;20037;-73
2023/04/21 07:26:08;;;;;;;57.25;34.63;;;;;;;8.50;100.00;101336.94;4991494;28;20402;-75
2023/04/21 07:28:33;;;;;;;52.75;33.42;;;;;;;8.53;100.00;101329.09;5012309;28;20110;-75
2023/04/21 07:30:59;;;;;;;50.83;33.03;;;;;;;8.63;100.00;101328.19;5007084;28;20037;-74
2023/04/21 07:33:24;;;;;;;51.13;33.28;;;;;;;8.82;100.00;101330.63;4994667;28;20038;-75
2023/04/21 07:35:49;;;;;;;52.50;32.60;;;;;;;8.96;100.00;101320.09;4993766;28;20478;-75
2023/04/21 07:38:15;;;;;;;46.30;29.85;;;;;;;9.00;100.00;101320.06;5005421;28;20497;-75
2023/04/21 07:40:40;;;;;;;47.78;31.08;;;;;;;8.88;100.00;101322.78;4994384;28;20066;-75
2023/04/21 07:43:05;;;;;;;47.28;31.83;;;;;;;8.78;100.00;101316.78;5034393;23;20058;-76
2023/04/21 07:45:31;;;;;;;50.50;32.10;;;;;;;8.89;100.00;101325.38;5039696;28;20387;-74
2023/04/21 07:47:56;;;;;;;52.13;33.63;;;;;;;9.06;100.00;101317.41;5042283;28;20174;-74
2023/04/21 07:50:21;;;;;;;46.13;31.55;;;;;;;9.10;100.00;101313.91;5035763;28;20044;-76
2023/04/21 07:52:49;;;;;;;44.40;30.38;;;;;;;9.17;100.00;101312.09;5043804;28;20052;-76
2023/04/21 07:55:14;;;;;;;41.10;26.65;;;;;;;9.11;100.00;101313.00;5041988;28;20025;-78
2023/04/21 07:57:40;;;;;;;40.10;27.25;;;;;;;9.08;100.00;101314.78;5036072;28;20018;-79
2023/04/21 08:00:06;;;;;;;38.03;26.00;;;;;;;9.18;100.00;101315.56;5048692;28;20083;-77
2023/04/21 08:02:31;;;;;;;35.25;24.50;;;;;;;9.24;100.00;101310.28;5052898;28;20017;-77
2023/04/21 08:04:57;;;;;;;37.78;26.08;;;;;;;9.23;100.00;101304.25;5044991;28;20455;-77
2023/04/21 08:07:22;;;;;;;43.13;28.55;;;;;;;9.32;100.00;101304.16;5043059;28;20535;-77
2023/04/21 08:09:47;;;;;;;40.03;28.02;;;;;;;9.49;100.00;101306.56;5048315;28;20035;-77
2023/04/21 08:12:13;;;;;;;35.13;24.55;;;;;;;9.48;100.00;101314.34;5045552;28;20033;-77
2023/04/21 08:14:39;;;;;;;35.75;24.55;;;;;;;9.55;100.00;101305.63;5051733;28;20017;-77
2023/04/21 08:17:04;;;;;;;30.63;22.58;;;;;;;9.59;100.00;101307.31;5045345;28;20029;-77
2023/04/21 08:19:29;;;;;;;36.47;24.10;;;;;;;9.70;100.00;101304.56;5042386;28;20029;-76
2023/04/21 08:21:56;;;;;;;33.97;25.05;;;;;;;9.73;100.00;101301.91;5053863;28;20376;-76
2023/04/21 08:24:21;;;;;;;32.90;22.65;;;;;;;9.76;100.00;101304.50;5042225;28;20030;-77
2023/04/21 08:26:46;;;;;;;31.23;22.60;;;;;;;9.87;100.00;101307.81;5043089;28;20076;-74
2023/04/21 08:29:12;;;;;;;31.35;23.10;;;;;;;9.97;100.00;101296.41;5037187;28;20049;-76
2023/04/21 08:31:38;;;;;;;32.58;22.80;;;;;;;9.90;100.00;101292.13;5051640;28;20467;-77
2023/04/21 08:34:03;;;;;;;32.03;22.45;;;;;;;10.09;100.00;101298.81;5054485;28;20410;-76
2023/04/21 08:36:28;;;;;;;31.60;22.60;;;;;;;10.21;100.00;101305.59;5053504;28;20033;-77
2023/04/21 08:38:54;;;;;;;31.02;22.23;;;;;;;10.34;100.00;101295.91;5054166;28;20032;-77
2023/04/21 08:41:20;;;;;;;29.35;21.23;;;;;;;10.42;100.00;101300.97;5054445;28;20059;-76
2023/04/21 08:43:46;;;;;;;29.23;21.30;;;;;;;10.52;100.00;101292.13;5052813;28;20059;-77
2023/04/21 08:46:14;;;;;;;30.33;21.13;;;;;;;10.64;100.00;101301.50;5054206;28;20029;-77
2023/04/21 08:48:39;;;;;;;27.42;20.73;;;;;;;10.75;100.00;101297.81;5053052;28;20370;-77
2023/04/21 08:51:08;;;;;;;31.63;21.38;;;;;;;10.88;100.00;101302.84;5053700;28;20104;-77
2023/04/21 08:53:40;;;;;;;29.55;21.33;;;;;;;10.90;100.00;101291.50;5054019;28;20036;-77
2023/04/21 08:56:06;;;;;;;28.05;21.25;;;;;;;11.02;100.00;101304.31;5052993;28;20052;-77
2023/04/21 08:58:31;;;;;;;27.33;20.05;;;;;;;11.00;100.00;101286.97;5053545;28;20063;-77
2023/04/21 09:00:58;;;;;;;25.67;18.30;;;;;;;11.07;100.00;101295.56;5053588;28;20524;-77
2023/04/21 09:03:25;;;;;;;28.77;19.58;;;;;;;11.34;100.00;101295.00;5045448;28;20033;-77
2023/04/21 09:05:58;;;;;;;23.80;17.90;;;;;;;11.56;100.00;101287.63;5052642;28;20032;-77
2023/04/21 09:08:25;;;;;;;21.67;16.65;;;;;;;11.74;95.93;101286.41;5053574;28;20392;-77
2023/04/21 09:10:51;;;;;;;21.52;16.65;;;;;;;11.89;96.67;101277.38;5052888;28;20025;-77
2023/04/21 09:13:18;;;;;;;20.73;15.35;;;;;;;11.93;93.35;101289.47;5053263;28;20033;-77
2023/04/21 09:15:45;;;;;;;21.33;15.55;;;;;;;12.02;93.94;101277.97;5053246;28;20056;-77
2023/04/21 09:18:22;;;;;;;19.60;15.80;;;;;;;12.18;95.55;101272.38;5052703;28;20017;-77
2023/04/21 09:21:08;;;;;;;18.45;13.98;;;;;;;12.43;91.90;101271.81;5053316;28;20025;-77
2023/04/21 09:23:44;;;;;;;18.73;14.57;;;;;;;12.36;86.30;101268.47;5053644;28;20112;-77
2023/04/21 09:26:10;;;;;;;20.27;14.80;;;;;;;12.59;87.71;101274.91;5052958;28;20445;-77
2023/04/21 09:28:36;;;;;;;21.55;15.00;;;;;;;12.92;87.92;101269.72;5046424;28;20025;-77
2023/04/21 09:31:01;;;;;;;19.85;14.07;;;;;;;13.22;85.54;101271.47;5045541;28;20029;-76
2023/04/21 09:33:26;;;;;;;19.60;15.05;;;;;;;13.25;85.02;101275.81;5053010;28;20194;-77
2023/04/21 09:35:52;;;;;;;20.48;15.45;;;;;;;13.42;88.09;101275.34;5051504;28;20029;-77
2023/04/21 09:38:21;;;;;;;19.02;14.10;;;;;;;13.68;84.60;101269.34;5052702;28;20025;-77
2023/04/21 09:40:55;;;;;;;18.70;14.50;;;;;;;13.92;81.76;101273.84;5052576;28;20036;-77
2023/04/21 09:43:21;;;;;;;18.23;13.45;;;;;;;14.06;82.17;101270.81;5038663;28;20033;-77
2023/04/21 09:45:48;;;;;;;17.10;13.27;;;;;;;14.07;78.57;101266.44;5052356;28;20033;-77
2023/04/21 09:48:16;;;;;;;18.00;13.93;;;;;;;14.07;79.48;101274.28;5052803;28;20017;-76
2023/04/21 09:50:42;;;;;;;16.08;12.73;;;;;;;14.02;76.99;101270.03;5040723;28;20032;-77
2023/04/21 09:53:13;;;;;;;17.10;13.00;;;;;;;14.02;75.61;101275.28;5034037;28;20029;-77
2023/04/21 09:55:40;;;;;;;16.50;12.60;;;;;;;13.87;71.71;101272.28;5038421;28;20116;-78
2023/04/21 09:58:08;;;;;;;18.95;12.82;;;;;;;13.88;77.09;101261.75;5040033;28;20064;-74
2023/04/21 10:00:38;;;;;;;16.15;12.45;;;;;;;13.98;74.44;101257.94;5045210;28;20419;-76
2023/04/21 10:03:10;;;;;;;17.67;13.07;;;;;;;14.20;74.19;101263.38;5042512;28;20384;-77
2023/04/21 10:05:37;;;;;;;18.50;13.68;;;;;;;14.45;74.69;101257.31;5050165;28;20431;-77
2023/04/21 10:08:06;;;;;;;16.92;12.63;;;;;;;14.72;72.44;101250.34;5042133;28;20032;-76
2023/04/21 10:10:34;;;;;;;16.60;12.65;;;;;;;14.87;69.81;101241.91;5048779;28;20365;-76
2023/04/21 10:13:00;;;;;;;16.55;12.88;;;;;;;14.88;71.57;101245.44;5038689;28;20029;-76
2023/04/21 10:15:36;;;;;;;15.55;12.85;;;;;;;14.90;70.85;101238.34;5047964;28;20056;-76
2023/04/21 10:18:21;;;;;;;15.60;12.60;;;;;;;14.81;72.46;101238.66;5042835;28;20025;-77
2023/04/21 10:21:08;;;;;;;17.00;13.23;;;;;;;14.87;74.29;101241.06;5042915;28;20025;-77
2023/04/21 10:23:45;;;;;;;18.27;13.93;;;;;;;14.88;70.13;101233.16;5049768;28;20074;-77
2023/04/21 10:26:14;;;;;;;18.23;14.43;;;;;;;14.82;70.21;101227.25;5041435;28;20044;-77
2023/04/21 10:28:44;;;;;;;18.58;14.55;;;;;;;14.94;71.79;101232.06;5050031;28;20483;-77
2023/04/21 10:31:32;;;;;;;18.38;15.55;;;;;;;14.85;71.68;101229.78;5045022;28;20033;-77
2023/04/21 10:34:07;;;;;;;19.15;14.20;;;;;;;15.02;68.85;101222.16;5051518;28;20069;-77
2023/04/21 10:36:44;;;;;;;17.60;14.10;;;;;;;14.93;69.73;101214.59;5046449;28;20029;-77
2023/04/21 10:39:16;;;;;;;17.05;14.88;;;;;;;14.89;71.32;101211.22;5034303;28;20032;-77
2023/04/21 10:41:42;;;;;;;19.63;14.45;;;;;;;14.99;68.88;101224.88;5030548;28;20045;-76
2023/04/21 10:44:12;;;;;;;18.73;14.50;;;;;;;15.17;69.82;101210.22;5014398;28;20026;-75
2023/04/21 10:46:40;;;;;;;17.98;14.70;;;;;;;15.15;68.01;101204.19;5040312;28;20488;-75
2023/04/21 10:49:08;;;;;;;18.40;15.18;;;;;;;15.19;70.90;101201.38;5042810;28;20026;-75
2023/04/21 10:51:56;;;;;;;18.70;14.93;;;;;;;15.53;70.05;101205.38;5043959;28;20082;-75
2023/04/21 10:54:21;;;;;;;18.65;14.35;;;;;;;15.67;68.52;101189.13;5029773;28;20480;-75
2023/04/21 10:56:50;;;;;;;18.42;14.80;;;;;;;15.72;66.06;101191.53;5029004;28;20049;-75
2023/04/21 10:59:17;;;;;;;15.48;13.35;;;;;;;15.86;63.71;101189.25;5030689;28;20021;-75
2023/04/21 11:01:43;;;;;;;17.67;14.50;;;;;;;16.19;64.43;101187.00;5029418;28;20033;-75
2023/04/21 11:04:20;;;;;;;17.15;13.90;;;;;;;16.54;65.50;101190.78;5027237;28;20385;-75
2023/04/21 11:07:04;;;;;;;16.48;13.98;;;;;;;16.62;63.25;101185.19;5030708;28;20057;-74